Weather at Abu Simbel Airport

Public forecast

Using degrees Celsius for public forecast. Weather courtesy of forecast.io.

Current aviation weather report (METAR) for Abu Simbel Airport

Report is more than 6 hours old.

2022/11/14 15:00 (retrieved 2 years ago)

HEBL 141500Z 31012KT CAVOK 28/09 Q1013

Aviation forecast (TAF) for Abu Simbel Airport

Forecast is more than 12 hours old.

2023/02/22 18:54 (retrieved 1 year ago)

TAF HEBL 221700Z 2218/2324 34011KT CAVOK